Time,TemperatureF,DewpointF,PressureIn,WindDirection,WindDirectionDegrees,WindSpeedMPH,WindSpeedGustMPH,Humidity,HourlyPrecipIn,Conditions,Clouds,dailyrainin,SoftwareType,DateUTC
2013-03-08 00:00:00,37.6,18.2,30.44,East,90,1.6,2.2,45,0.00,,OVC026,0.00,VWS V14.01,2013-03-08 05:00:00,
2013-03-08 00:01:00,37.6,18.2,30.44,NE,45,1.6,3.8,45,0.00,,OVC025,0.00,VWS V14.01,2013-03-08 05:01:00,
2013-03-08 00:06:00,37.6,18.2,30.44,ENE,68,2.7,3.8,45,0.00,,OVC025,0.00,VWS V14.01,2013-03-08 05:06:00,
2013-03-08 00:11:00,37.6,18.2,30.44,ENE,68,1.3,3.8,45,0.00,,OVC025,0.00,VWS V14.01,2013-03-08 05:11:00,
2013-03-08 00:16:00,37.6,18.2,30.44,NNE,22,0.0,3.8,45,0.00,,OVC025,0.00,VWS V14.01,2013-03-08 05:16:00,
2013-03-08 00:21:00,37.6,18.7,30.44,NNE,22,2.0,3.8,46,0.00,,OVC025,0.00,VWS V14.01,2013-03-08 05:21:00,
2013-03-08 00:26:00,37.6,18.7,30.44,NE,45,1.1,3.8,46,0.00,,OVC025,0.00,VWS V14.01,2013-03-08 05:26:00,
2013-03-08 00:31:00,37.6,18.7,30.44,ENE,68,0.0,3.8,46,0.00,,OVC025,0.00,VWS V14.01,2013-03-08 05:31:00,
2013-03-08 00:36:00,37.6,18.2,30.41,ENE,68,2.7,4.9,45,0.00,,OVC025,0.00,VWS V14.01,2013-03-08 05:36:00,
2013-03-08 00:41:00,37.6,18.2,30.41,NNE,22,2.7,4.9,45,0.00,,OVC025,0.00,VWS V14.01,2013-03-08 05:41:00,
2013-03-08 00:46:00,37.6,18.2,30.41,ENE,68,0.0,4.9,45,0.00,,OVC025,0.00,VWS V14.01,2013-03-08 05:46:00,
2013-03-08 00:51:00,37.6,18.7,30.44,ENE,68,1.3,4.9,46,0.00,,OVC025,0.00,VWS V14.01,2013-03-08 05:51:00,
2013-03-08 00:56:00,37.6,18.7,30.44,NNE,22,1.3,1.6,46,0.00,,OVC025,0.00,VWS V14.01,2013-03-08 05:56:00,
2013-03-08 01:01:00,37.6,18.7,30.44,ENE,68,0.9,2.9,46,0.00,,OVC027,0.00,VWS V14.01,2013-03-08 06:01:00,
2013-03-08 01:06:00,37.6,18.7,30.44,ENE,68,1.6,3.6,46,0.00,,OVC027,0.00,VWS V14.01,2013-03-08 06:06:00,
2013-03-08 01:11:00,37.6,18.7,30.44,East,90,2.2,3.6,46,0.00,,OVC027,0.00,VWS V14.01,2013-03-08 06:11:00,
2013-03-08 01:16:00,37.6,18.7,30.44,ENE,68,0.9,3.6,46,0.00,,OVC027,0.00,VWS V14.01,2013-03-08 06:16:00,
2013-03-08 01:21:00,37.6,18.7,30.44,ENE,68,0.0,3.6,46,0.00,,OVC027,0.00,VWS V14.01,2013-03-08 06:21:00,
2013-03-08 01:26:00,37.6,18.7,30.44,ENE,68,2.7,3.6,46,0.00,,OVC027,0.00,VWS V14.01,2013-03-08 06:26:00,
2013-03-08 01:31:00,37.6,18.7,30.44,NE,45,0.0,4.0,46,0.00,,OVC027,0.00,VWS V14.01,2013-03-08 06:31:00,
2013-03-08 01:36:00,37.6,18.7,30.44,NE,45,2.2,4.0,46,0.00,,OVC027,0.00,VWS V14.01,2013-03-08 06:36:00,
2013-03-08 01:41:00,37.4,18.5,30.44,NE,45,2.7,4.0,46,0.00,,OVC027,0.00,VWS V14.01,2013-03-08 06:41:00,
2013-03-08 01:46:00,37.4,18.5,30.44,NE,45,2.2,4.0,46,0.00,,OVC027,0.00,VWS V14.01,2013-03-08 06:46:00,
2013-03-08 01:51:00,37.4,18.5,30.44,ESE,112,2.0,4.0,46,0.00,,OVC027,0.00,VWS V14.01,2013-03-08 06:51:00,
2013-03-08 02:43:00,36.7,17.4,30.44,East,90,3.1,3.1,45,0.00,,OVC027,0.00,VWS V14.01,2013-03-08 07:43:00,
2013-03-08 02:48:00,36.5,17.2,30.44,ENE,68,3.1,3.1,45,0.00,,OVC026,0.00,VWS V14.01,2013-03-08 07:48:00,
2013-03-08 02:53:00,36.3,17.0,30.41,ENE,68,0.0,3.1,45,0.00,,OVC026,0.00,VWS V14.01,2013-03-08 07:53:00,
2013-03-08 02:58:00,36.1,17.4,30.41,ENE,68,0.0,0.0,46,0.00,,OVC026,0.00,VWS V14.01,2013-03-08 07:58:00,
2013-03-08 03:03:00,36.1,17.4,30.41,ENE,68,0.0,0.0,46,0.00,,OVC026,0.00,VWS V14.01,2013-03-08 08:03:00,
2013-03-08 03:07:00,35.8,17.5,30.44,ENE,68,0.0,0.0,47,0.00,,OVC026,0.00,VWS V14.01,2013-03-08 08:07:00,
2013-03-08 03:12:00,35.8,17.5,30.44,ENE,68,0.0,0.0,47,0.00,,OVC026,0.00,VWS V14.01,2013-03-08 08:12:00,
2013-03-08 03:17:00,35.6,17.4,30.44,ENE,68,0.0,0.0,47,0.00,,OVC026,0.00,VWS V14.01,2013-03-08 08:17:00,
2013-03-08 03:23:00,35.6,17.4,30.41,ENE,68,0.0,0.0,47,0.00,,OVC026,0.00,VWS V14.01,2013-03-08 08:23:00,
2013-03-08 03:27:00,35.4,17.7,30.41,ENE,68,0.0,0.0,48,0.00,,OVC026,0.00,VWS V14.01,2013-03-08 08:27:00,
2013-03-08 03:33:00,35.1,17.4,30.41,ENE,68,0.0,0.0,48,0.00,,OVC026,0.00,VWS V14.01,2013-03-08 08:33:00,
2013-03-08 03:38:00,34.9,17.2,30.44,ENE,68,0.0,0.0,48,0.00,,OVC026,0.00,VWS V14.01,2013-03-08 08:38:00,
2013-03-08 03:43:00,34.7,17.5,30.44,ENE,68,0.0,0.0,49,0.00,,OVC026,0.00,VWS V14.01,2013-03-08 08:43:00,
2013-03-08 03:48:00,34.3,17.6,30.44,ENE,68,0.0,0.0,50,0.00,,OVC026,0.00,VWS V14.01,2013-03-08 08:48:00,
2013-03-08 03:52:00,34.3,17.6,30.44,ENE,68,0.0,0.0,50,0.00,,OVC026,0.00,VWS V14.01,2013-03-08 08:52:00,
2013-03-08 03:57:00,34.2,17.5,30.44,ENE,68,0.0,0.0,50,0.00,,OVC026,0.00,VWS V14.01,2013-03-08 08:57:00,
2013-03-08 04:02:00,34.0,17.8,30.44,ENE,68,0.0,0.0,51,0.00,,OVC026,0.00,VWS V14.01,2013-03-08 09:02:00,
2013-03-08 04:07:00,34.0,17.8,30.44,ENE,68,0.0,0.0,51,0.00,,OVC026,0.00,VWS V14.01,2013-03-08 09:07:00,
2013-03-08 04:12:00,33.8,17.6,30.44,ENE,68,0.0,0.0,51,0.00,,OVC026,0.00,VWS V14.01,2013-03-08 09:12:00,
2013-03-08 04:17:00,33.6,17.9,30.44,ENE,68,0.0,0.0,52,0.00,,OVC026,0.00,VWS V14.01,2013-03-08 09:17:00,
2013-03-08 04:22:00,33.3,17.5,30.44,ENE,68,0.0,0.0,52,0.00,,OVC026,0.00,VWS V14.01,2013-03-08 09:22:00,
2013-03-08 04:27:00,33.3,18.0,30.44,ENE,68,0.0,0.0,53,0.00,,OVC026,0.00,VWS V14.01,2013-03-08 09:27:00,
2013-03-08 04:32:00,33.1,17.8,30.44,ENE,68,0.0,0.0,53,0.00,,BKN026,0.00,VWS V14.01,2013-03-08 09:32:00,
2013-03-08 04:37:00,32.9,17.7,30.44,NNE,22,0.0,1.6,53,0.00,,BKN026,0.00,VWS V14.01,2013-03-08 09:37:00,
2013-03-08 04:42:00,32.7,17.9,30.44,NNE,22,0.0,1.6,54,0.00,,BKN026,0.00,VWS V14.01,2013-03-08 09:42:00,
2013-03-08 04:47:00,32.7,18.4,30.44,NNE,22,0.0,1.6,55,0.00,,BKN026,0.00,VWS V14.01,2013-03-08 09:47:00,
2013-03-08 04:52:00,32.7,18.4,30.47,NNE,22,0.0,1.6,55,0.00,,BKN026,0.00,VWS V14.01,2013-03-08 09:52:00,
2013-03-08 04:57:00,32.7,18.4,30.47,NNE,22,0.0,2.0,55,0.00,,BKN026,0.00,VWS V14.01,2013-03-08 09:57:00,
2013-03-08 05:02:00,32.7,18.4,30.47,NNW,338,1.1,2.2,55,0.00,,BKN026,0.00,VWS V14.01,2013-03-08 10:02:00,
2013-03-08 05:07:00,32.5,18.6,30.47,NNW,338,0.0,2.2,56,0.00,,BKN026,0.00,VWS V14.01,2013-03-08 10:07:00,
2013-03-08 05:12:00,32.4,18.8,30.47,NNW,338,0.0,2.2,57,0.00,,BKN026,0.00,VWS V14.01,2013-03-08 10:12:00,
2013-03-08 05:17:00,32.4,18.8,30.47,NNW,338,0.0,2.2,57,0.00,,BKN026,0.00,VWS V14.01,2013-03-08 10:17:00,
2013-03-08 05:22:00,32.2,18.7,30.47,NNW,338,0.0,2.2,57,0.00,,BKN026,0.00,VWS V14.01,2013-03-08 10:22:00,
2013-03-08 05:27:00,32.2,18.7,30.47,NNW,338,0.0,2.2,57,0.00,,BKN026,0.00,VWS V14.01,2013-03-08 10:27:00,
2013-03-08 05:32:00,32.0,18.5,30.47,NNW,338,0.0,2.2,57,0.00,,BKN026,0.00,VWS V14.01,2013-03-08 10:32:00,
2013-03-08 05:37:00,32.0,18.5,30.47,NE,45,1.6,2.2,57,0.00,,BKN026,0.00,VWS V14.01,2013-03-08 10:37:00,
2013-03-08 05:42:00,31.8,18.3,30.47,NNE,22,0.0,2.2,57,0.00,,BKN026,0.00,VWS V14.01,2013-03-08 10:42:00,
2013-03-08 05:47:00,32.0,18.9,30.47,NE,45,0.0,2.9,58,0.00,,SCT026,0.00,VWS V14.01,2013-03-08 10:47:00,
2013-03-08 05:52:00,32.0,18.9,30.47,NE,45,1.6,2.9,58,0.00,,SCT026,0.00,VWS V14.01,2013-03-08 10:52:00,
2013-03-08 05:57:00,31.8,18.7,30.47,NNE,22,0.0,0.9,58,0.00,,SCT026,0.00,VWS V14.01,2013-03-08 10:57:00,
2013-03-08 06:02:00,31.8,18.7,30.47,NE,45,1.1,3.1,58,0.00,,SCT026,0.00,VWS V14.01,2013-03-08 11:02:00,
2013-03-08 06:07:00,32.0,19.3,30.47,NE,45,0.0,3.1,59,0.00,,SCT026,0.00,VWS V14.01,2013-03-08 11:07:00,
2013-03-08 06:12:00,31.8,19.1,30.47,NE,45,0.0,3.1,59,0.00,,SCT026,0.00,VWS V14.01,2013-03-08 11:12:00,
2013-03-08 06:17:00,31.8,19.1,30.47,NE,45,0.0,3.1,59,0.00,,FEW026,0.00,VWS V14.01,2013-03-08 11:17:00,
2013-03-08 06:22:00,31.6,19.4,30.47,NE,45,0.0,3.1,60,0.00,,FEW026,0.00,VWS V14.01,2013-03-08 11:22:00,
2013-03-08 06:27:00,31.5,19.6,30.47,NE,45,0.0,3.1,61,0.00,,FEW026,0.00,VWS V14.01,2013-03-08 11:27:00,
2013-03-08 06:32:00,31.3,19.4,30.47,NE,45,0.0,3.1,61,0.00,,FEW026,0.00,VWS V14.01,2013-03-08 11:32:00,
2013-03-08 06:37:00,31.1,19.6,30.47,NE,45,0.0,3.1,62,0.00,,FEW026,0.00,VWS V14.01,2013-03-08 11:37:00,
2013-03-08 06:42:00,31.1,19.6,30.47,NE,45,0.0,3.1,62,0.00,,FEW026,0.00,VWS V14.01,2013-03-08 11:42:00,
2013-03-08 06:47:00,31.1,20.0,30.47,NE,45,0.0,3.1,63,0.00,,FEW026,0.00,VWS V14.01,2013-03-08 11:47:00,
2013-03-08 06:52:00,30.9,19.8,30.47,NE,45,0.0,3.1,63,0.00,,FEW026,0.00,VWS V14.01,2013-03-08 11:52:00,
2013-03-08 06:57:00,30.7,19.6,30.47,NE,45,0.0,0.0,63,0.00,,FEW026,0.00,VWS V14.01,2013-03-08 11:57:00,
2013-03-08 07:02:00,30.7,20.0,30.47,NE,45,0.0,0.0,64,0.00,,FEW026,0.00,VWS V14.01,2013-03-08 12:02:00,
2013-03-08 07:07:00,30.6,19.9,30.50,NE,45,0.0,0.0,64,0.00,,FEW026,0.00,VWS V14.01,2013-03-08 12:07:00,
2013-03-08 07:12:00,30.6,19.9,30.50,NE,45,0.0,0.0,64,0.00,,FEW026,0.00,VWS V14.01,2013-03-08 12:12:00,
2013-03-08 07:17:00,30.6,20.2,30.50,NE,45,0.0,0.0,65,0.00,,CLR,0.00,VWS V14.01,2013-03-08 12:17:00,
2013-03-08 07:22:00,30.6,20.2,30.50,NE,45,0.0,0.0,65,0.00,,CLR,0.00,VWS V14.01,2013-03-08 12:22:00,
2013-03-08 07:27:00,30.7,20.7,30.50,NE,45,0.0,0.0,66,0.00,,CLR,0.00,VWS V14.01,2013-03-08 12:27:00,
2013-03-08 07:32:00,30.9,21.3,30.50,NE,45,0.0,0.0,67,0.00,,CLR,0.00,VWS V14.01,2013-03-08 12:32:00,
2013-03-08 07:37:00,30.9,20.9,30.50,NE,45,0.0,0.0,66,0.00,,CLR,0.00,VWS V14.01,2013-03-08 12:37:00,
2013-03-08 07:42:00,31.1,21.1,30.50,NE,45,0.0,0.0,66,0.00,,CLR,0.00,VWS V14.01,2013-03-08 12:42:00,
2013-03-08 07:47:00,31.1,21.1,30.50,NE,45,0.0,0.0,66,0.00,,CLR,0.00,VWS V14.01,2013-03-08 12:47:00,
2013-03-08 07:52:00,31.5,21.4,30.50,ENE,68,3.1,3.1,66,0.00,,CLR,0.00,VWS V14.01,2013-03-08 12:52:00,
2013-03-08 07:57:00,32.4,22.6,30.50,ENE,68,1.1,3.6,67,0.00,,CLR,0.00,VWS V14.01,2013-03-08 12:57:00,
2013-03-08 08:02:00,32.9,22.8,30.50,ENE,68,2.9,3.6,66,0.00,,CLR,0.00,VWS V14.01,2013-03-08 13:02:00,
2013-03-08 08:07:00,33.4,23.3,30.50,ENE,68,1.6,3.6,66,0.00,,CLR,0.00,VWS V14.01,2013-03-08 13:07:00,
2013-03-08 08:12:00,34.0,23.1,30.50,ENE,68,3.1,3.8,64,0.00,,CLR,0.00,VWS V14.01,2013-03-08 13:12:00,
2013-03-08 08:17:00,34.3,22.3,30.50,ENE,68,3.1,5.4,61,0.00,,CLR,0.00,VWS V14.01,2013-03-08 13:17:00,
2013-03-08 08:22:00,34.7,21.9,30.50,ENE,68,3.4,5.6,59,0.00,,CLR,0.00,VWS V14.01,2013-03-08 13:22:00,
2013-03-08 08:27:00,35.1,21.8,30.50,ENE,68,1.1,5.6,58,0.00,,CLR,0.00,VWS V14.01,2013-03-08 13:27:00,
2013-03-08 08:32:00,35.4,21.3,30.50,ESE,112,2.9,5.6,56,0.00,,CLR,0.00,VWS V14.01,2013-03-08 13:32:00,
2013-03-08 08:37:00,35.8,20.8,30.50,ENE,68,0.9,5.6,54,0.00,,CLR,0.00,VWS V14.01,2013-03-08 13:37:00,
2013-03-08 08:42:00,36.3,20.8,30.50,East,90,0.0,5.6,53,0.00,,CLR,0.00,VWS V14.01,2013-03-08 13:42:00,
2013-03-08 08:47:00,36.7,20.3,30.50,ESE,112,6.3,6.3,51,0.00,,CLR,0.00,VWS V14.01,2013-03-08 13:47:00,
2013-03-08 08:52:00,36.9,19.5,30.50,ENE,68,2.9,6.5,49,0.00,,CLR,0.00,VWS V14.01,2013-03-08 13:52:00,
2013-03-08 08:57:00,37.2,18.9,30.50,ENE,68,3.8,5.8,47,0.00,,CLR,0.00,VWS V14.01,2013-03-08 13:57:00,
2013-03-08 09:02:00,37.6,19.2,30.50,NNE,22,2.5,5.8,47,0.00,,CLR,0.00,VWS V14.01,2013-03-08 14:02:00,
2013-03-08 09:07:00,37.9,19.0,30.50,ENE,68,1.6,7.2,46,0.00,,CLR,0.00,VWS V14.01,2013-03-08 14:07:00,
2013-03-08 09:12:00,38.1,18.1,30.50,ENE,68,1.6,7.2,44,0.00,,CLR,0.00,VWS V14.01,2013-03-08 14:12:00,
2013-03-08 09:17:00,38.3,17.8,30.50,ESE,112,3.4,8.7,43,0.00,,CLR,0.00,VWS V14.01,2013-03-08 14:17:00,
2013-03-08 09:22:00,38.7,17.6,30.50,ENE,68,4.0,8.7,42,0.00,,CLR,0.00,VWS V14.01,2013-03-08 14:22:00,
2013-03-08 09:27:00,38.8,17.2,30.50,NNE,22,1.3,8.7,41,0.00,,CLR,0.00,VWS V14.01,2013-03-08 14:27:00,
2013-03-08 09:32:00,39.2,17.5,30.50,ENE,68,3.8,8.7,41,0.00,,CLR,0.00,VWS V14.01,2013-03-08 14:32:00,
2013-03-08 09:37:00,39.4,17.1,30.47,SE,135,2.5,8.7,40,0.00,,CLR,0.00,VWS V14.01,2013-03-08 14:37:00,
2013-03-08 09:42:00,39.7,17.4,30.47,NW,315,1.1,8.7,40,0.00,,CLR,0.00,VWS V14.01,2013-03-08 14:42:00,
2013-03-08 09:47:00,40.1,17.1,30.47,ESE,112,1.3,8.7,39,0.00,,CLR,0.00,VWS V14.01,2013-03-08 14:47:00,
2013-03-08 09:52:00,40.5,16.9,30.50,SSE,158,2.9,8.7,38,0.00,,CLR,0.00,VWS V14.01,2013-03-08 14:52:00,
2013-03-08 09:57:00,40.5,16.3,30.50,East,90,4.9,4.9,37,0.00,,CLR,0.00,VWS V14.01,2013-03-08 14:57:00,
2013-03-08 10:02:00,40.5,15.0,30.50,SSE,158,1.6,8.7,35,0.00,,CLR,0.00,VWS V14.01,2013-03-08 15:02:00,
2013-03-08 10:07:00,41.0,16.7,30.50,ENE,68,3.1,9.0,37,0.00,,CLR,0.00,VWS V14.01,2013-03-08 15:07:00,
2013-03-08 10:12:00,41.2,15.6,30.50,SSE,158,1.1,9.0,35,0.00,,CLR,0.00,VWS V14.01,2013-03-08 15:12:00,
2013-03-08 10:17:00,41.2,15.6,30.50,NE,45,5.4,9.0,35,0.00,,CLR,0.00,VWS V14.01,2013-03-08 15:17:00,
2013-03-08 10:22:00,41.5,16.6,30.47,NE,45,2.5,9.0,36,0.00,,CLR,0.00,VWS V14.01,2013-03-08 15:22:00,
2013-03-08 10:27:00,41.7,16.1,30.47,North,0,4.0,9.0,35,0.00,,CLR,0.00,VWS V14.01,2013-03-08 15:27:00,
2013-03-08 10:32:00,41.7,15.4,30.47,NNE,22,2.0,9.0,34,0.00,,CLR,0.00,VWS V14.01,2013-03-08 15:32:00,
2013-03-08 10:37:00,41.7,16.1,30.50,East,90,1.6,9.0,35,0.00,,CLR,0.00,VWS V14.01,2013-03-08 15:37:00,
2013-03-08 10:42:00,42.1,17.1,30.50,ENE,68,4.0,9.0,36,0.00,,CLR,0.00,VWS V14.01,2013-03-08 15:42:00,
2013-03-08 10:47:00,42.3,15.2,30.50,SE,135,2.7,9.0,33,0.00,,CLR,0.00,VWS V14.01,2013-03-08 15:47:00,
2013-03-08 10:52:00,42.6,16.9,30.50,SSE,158,3.8,9.0,35,0.00,,CLR,0.00,VWS V14.01,2013-03-08 15:52:00,
2013-03-08 10:57:00,43.0,15.9,30.50,NE,45,1.1,5.4,33,0.00,,CLR,0.00,VWS V14.01,2013-03-08 15:57:00,
2013-03-08 11:02:00,43.2,16.0,30.50,NNE,22,2.5,8.7,33,0.00,,CLR,0.00,VWS V14.01,2013-03-08 16:02:00,
2013-03-08 11:07:00,43.3,16.2,30.50,North,0,2.5,8.7,33,0.00,,CLR,0.00,VWS V14.01,2013-03-08 16:07:00,
2013-03-08 11:12:00,43.3,16.2,30.50,ESE,112,1.3,8.7,33,0.00,,CLR,0.00,VWS V14.01,2013-03-08 16:12:00,
2013-03-08 11:17:00,43.3,16.2,30.50,SSE,158,3.1,8.7,33,0.00,,CLR,0.00,VWS V14.01,2013-03-08 16:17:00,
2013-03-08 11:22:00,43.7,16.5,30.50,NNE,22,1.3,8.7,33,0.00,,CLR,0.00,VWS V14.01,2013-03-08 16:22:00,
2013-03-08 11:27:00,43.7,15.1,30.50,NNE,22,4.0,8.7,31,0.00,,CLR,0.00,VWS V14.01,2013-03-08 16:27:00,
2013-03-08 11:32:00,43.9,15.2,30.50,NNW,338,3.6,8.7,31,0.00,,CLR,0.00,VWS V14.01,2013-03-08 16:32:00,
2013-03-08 11:37:00,44.1,15.4,30.50,ENE,68,2.0,8.7,31,0.00,,CLR,0.00,VWS V14.01,2013-03-08 16:37:00,
2013-03-08 11:42:00,44.4,16.4,30.50,ESE,112,2.5,8.7,32,0.00,,CLR,0.00,VWS V14.01,2013-03-08 16:42:00,
2013-03-08 11:47:00,44.4,15.7,30.50,SSE,158,0.9,8.7,31,0.00,,CLR,0.00,VWS V14.01,2013-03-08 16:47:00,
2013-03-08 11:52:00,44.6,15.1,30.50,SSE,158,2.0,8.7,30,0.00,,CLR,0.00,VWS V14.01,2013-03-08 16:52:00,
2013-03-08 11:57:00,45.1,17.1,30.50,South,180,3.4,7.2,32,0.00,,CLR,0.00,VWS V14.01,2013-03-08 16:57:00,
2013-03-08 12:02:00,45.9,16.2,30.50,East,90,6.5,7.2,30,0.00,,CLR,0.00,VWS V14.01,2013-03-08 17:02:00,
2013-03-08 12:07:00,45.7,16.0,30.50,NNE,22,3.8,7.2,30,0.00,,CLR,0.00,VWS V14.01,2013-03-08 17:07:00,
2013-03-08 12:12:00,45.7,15.3,30.50,SSE,158,4.9,7.2,29,0.00,,CLR,0.00,VWS V14.01,2013-03-08 17:12:00,
2013-03-08 12:17:00,46.2,16.5,30.50,SE,135,2.5,7.2,30,0.00,,CLR,0.00,VWS V14.01,2013-03-08 17:17:00,
2013-03-08 12:22:00,46.4,15.9,30.50,ENE,68,1.6,7.2,29,0.00,,CLR,0.00,VWS V14.01,2013-03-08 17:22:00,
2013-03-08 12:27:00,46.2,15.7,30.50,ENE,68,0.9,7.2,29,0.00,,CLR,0.00,VWS V14.01,2013-03-08 17:27:00,
2013-03-08 12:32:00,46.4,15.9,30.50,NE,45,1.3,7.2,29,0.00,,CLR,0.00,VWS V14.01,2013-03-08 17:32:00,
2013-03-08 12:37:00,46.9,16.4,30.50,NNW,338,3.4,7.2,29,0.00,,CLR,0.00,VWS V14.01,2013-03-08 17:37:00,
2013-03-08 12:42:00,47.1,16.5,30.50,NE,45,3.4,7.2,29,0.00,,CLR,0.00,VWS V14.01,2013-03-08 17:42:00,
2013-03-08 12:47:00,47.3,15.9,30.50,East,90,1.3,7.2,28,0.00,,CLR,0.00,VWS V14.01,2013-03-08 17:47:00,
2013-03-08 12:52:00,47.3,15.9,30.50,NNE,22,4.3,7.6,28,0.00,,CLR,0.00,VWS V14.01,2013-03-08 17:52:00,
2013-03-08 12:57:00,47.7,16.2,30.50,NNE,22,3.1,5.4,28,0.00,,CLR,0.00,VWS V14.01,2013-03-08 17:57:00,
2013-03-08 13:02:00,47.7,16.2,30.50,NE,45,2.2,7.2,28,0.00,,CLR,0.00,VWS V14.01,2013-03-08 18:02:00,
2013-03-08 13:07:00,47.8,16.3,30.50,ENE,68,1.6,7.2,28,0.00,,CLR,0.00,VWS V14.01,2013-03-08 18:07:00,
2013-03-08 13:12:00,48.0,16.5,30.50,East,90,2.0,7.2,28,0.00,,CLR,0.00,VWS V14.01,2013-03-08 18:12:00,
2013-03-08 13:17:00,48.4,16.8,30.50,ENE,68,3.8,7.2,28,0.00,,CLR,0.00,VWS V14.01,2013-03-08 18:17:00,
2013-03-08 13:22:00,48.2,15.8,30.50,NE,45,10.1,10.1,27,0.00,,CLR,0.00,VWS V14.01,2013-03-08 18:22:00,
2013-03-08 13:27:00,48.2,15.8,30.50,ESE,112,3.8,10.1,27,0.00,,CLR,0.00,VWS V14.01,2013-03-08 18:27:00,
2013-03-08 13:32:00,48.6,16.1,30.50,SSE,158,3.8,10.1,27,0.00,,CLR,0.00,VWS V14.01,2013-03-08 18:32:00,
2013-03-08 13:37:00,48.6,16.1,30.47,ENE,68,4.3,10.1,27,0.00,,CLR,0.00,VWS V14.01,2013-03-08 18:37:00,
2013-03-08 13:42:00,48.4,16.0,30.47,SSW,202,1.6,10.1,27,0.00,,CLR,0.00,VWS V14.01,2013-03-08 18:42:00,
2013-03-08 13:47:00,48.7,16.3,30.47,WNW,292,2.5,10.1,27,0.00,,CLR,0.00,VWS V14.01,2013-03-08 18:47:00,
2013-03-08 13:52:00,49.1,16.6,30.44,NW,315,1.1,10.1,27,0.00,,CLR,0.00,VWS V14.01,2013-03-08 18:52:00,
2013-03-08 13:57:00,49.3,16.7,30.44,ENE,68,3.6,8.7,27,0.00,,CLR,0.00,VWS V14.01,2013-03-08 18:57:00,
2013-03-08 14:02:00,49.6,17.0,30.44,South,180,3.1,8.7,27,0.00,,CLR,0.00,VWS V14.01,2013-03-08 19:02:00,
2013-03-08 14:07:00,49.8,17.2,30.44,NNE,22,3.1,8.7,27,0.00,,CLR,0.00,VWS V14.01,2013-03-08 19:07:00,
2013-03-08 14:12:00,49.6,17.0,30.44,NE,45,4.0,9.8,27,0.00,,CLR,0.00,VWS V14.01,2013-03-08 19:12:00,
2013-03-08 14:17:00,49.6,17.0,30.44,ENE,68,2.9,9.8,27,0.00,,CLR,0.00,VWS V14.01,2013-03-08 19:17:00,
2013-03-08 14:22:00,50.0,17.4,30.44,North,0,5.4,9.8,27,0.00,,CLR,0.00,VWS V14.01,2013-03-08 19:22:00,
2013-03-08 14:27:00,50.0,16.5,30.44,NE,45,3.8,9.8,26,0.00,,CLR,0.00,VWS V14.01,2013-03-08 19:27:00,
2013-03-08 14:32:00,49.8,17.2,30.44,North,0,2.0,9.8,27,0.00,,CLR,0.00,VWS V14.01,2013-03-08 19:32:00,
2013-03-08 14:37:00,50.0,16.5,30.44,ENE,68,4.0,9.8,26,0.00,,CLR,0.00,VWS V14.01,2013-03-08 19:37:00,
2013-03-08 14:42:00,50.0,16.5,30.44,ENE,68,6.0,9.8,26,0.00,,CLR,0.00,VWS V14.01,2013-03-08 19:42:00,
2013-03-08 14:47:00,50.0,16.5,30.44,NNW,338,1.1,9.8,26,0.00,,CLR,0.00,VWS V14.01,2013-03-08 19:47:00,
2013-03-08 14:52:00,49.8,17.2,30.41,North,0,7.2,9.8,27,0.00,,CLR,0.00,VWS V14.01,2013-03-08 19:52:00,
2013-03-08 14:57:00,49.8,17.2,30.41,North,0,3.1,8.5,27,0.00,,CLR,0.00,VWS V14.01,2013-03-08 19:57:00,
2013-03-08 15:02:00,50.0,17.4,30.41,NE,45,1.3,8.5,27,0.00,,CLR,0.00,VWS V14.01,2013-03-08 20:02:00,
2013-03-08 15:07:00,50.2,17.5,30.41,NNW,338,5.6,8.5,27,0.00,,CLR,0.00,VWS V14.01,2013-03-08 20:07:00,
2013-03-08 15:12:00,50.4,16.8,30.41,ESE,112,2.9,8.5,26,0.00,,CLR,0.00,VWS V14.01,2013-03-08 20:12:00,
2013-03-08 15:17:00,50.5,17.8,30.41,ENE,68,2.0,8.5,27,0.00,,CLR,0.00,VWS V14.01,2013-03-08 20:17:00,
2013-03-08 15:22:00,50.5,17.0,30.41,NNE,22,2.9,8.5,26,0.00,,CLR,0.00,VWS V14.01,2013-03-08 20:22:00,
2013-03-08 15:27:00,50.5,17.0,30.41,ESE,112,2.0,8.5,26,0.00,,CLR,0.00,VWS V14.01,2013-03-08 20:27:00,
2013-03-08 15:32:00,50.7,18.0,30.41,NNE,22,3.6,8.5,27,0.00,,CLR,0.00,VWS V14.01,2013-03-08 20:32:00,
2013-03-08 15:37:00,50.5,17.0,30.41,SSE,158,5.8,8.5,26,0.00,,CLR,0.00,VWS V14.01,2013-03-08 20:37:00,
2013-03-08 15:42:00,50.5,17.0,30.41,ENE,68,2.7,8.5,26,0.00,,CLR,0.00,VWS V14.01,2013-03-08 20:42:00,
2013-03-08 15:47:00,50.5,17.0,30.41,North,0,3.1,8.5,26,0.00,,CLR,0.00,VWS V14.01,2013-03-08 20:47:00,
2013-03-08 15:52:00,50.7,18.0,30.41,SSE,158,0.0,8.5,27,0.00,,CLR,0.00,VWS V14.01,2013-03-08 20:52:00,
2013-03-08 15:57:00,50.7,17.1,30.41,NE,45,3.4,7.8,26,0.00,,CLR,0.00,VWS V14.01,2013-03-08 20:57:00,
2013-03-08 16:02:00,50.9,17.2,30.41,ENE,68,1.1,8.1,26,0.00,,CLR,0.00,VWS V14.01,2013-03-08 21:02:00,
2013-03-08 16:07:00,51.1,17.4,30.41,East,90,2.2,8.1,26,0.00,,CLR,0.00,VWS V14.01,2013-03-08 21:07:00,
2013-03-08 16:12:00,51.1,17.4,30.41,NE,45,3.1,9.8,26,0.00,,CLR,0.00,VWS V14.01,2013-03-08 21:12:00,
2013-03-08 16:17:00,51.3,17.6,30.41,ENE,68,2.2,9.8,26,0.00,,CLR,0.00,VWS V14.01,2013-03-08 21:17:00,
2013-03-08 16:22:00,51.4,17.7,30.41,SSE,158,1.6,9.8,26,0.00,,CLR,0.00,VWS V14.01,2013-03-08 21:22:00,
2013-03-08 16:27:00,51.4,17.7,30.41,SSE,158,2.5,9.8,26,0.00,,CLR,0.00,VWS V14.01,2013-03-08 21:27:00,
2013-03-08 16:32:00,51.4,17.7,30.41,SE,135,3.4,9.8,26,0.00,,CLR,0.00,VWS V14.01,2013-03-08 21:32:00,
2013-03-08 16:37:00,51.3,17.6,30.41,SSE,158,2.9,9.8,26,0.00,,CLR,0.00,VWS V14.01,2013-03-08 21:37:00,
2013-03-08 16:42:00,51.4,17.7,30.41,SSE,158,2.0,9.8,26,0.00,,CLR,0.00,VWS V14.01,2013-03-08 21:42:00,
2013-03-08 16:47:00,51.4,17.7,30.41,ENE,68,1.6,9.8,26,0.00,,CLR,0.00,VWS V14.01,2013-03-08 21:47:00,
2013-03-08 16:52:00,51.3,17.6,30.39,ENE,68,3.1,9.8,26,0.00,,CLR,0.00,VWS V14.01,2013-03-08 21:52:00,
2013-03-08 16:57:00,51.1,17.4,30.39,ESE,112,2.2,4.7,26,0.00,,CLR,0.00,VWS V14.01,2013-03-08 21:57:00,
2013-03-08 17:02:00,50.9,17.2,30.39,ENE,68,2.2,4.7,26,0.00,,CLR,0.00,VWS V14.01,2013-03-08 22:02:00,
2013-03-08 17:07:00,50.9,17.2,30.41,ESE,112,2.0,4.7,26,0.00,,CLR,0.00,VWS V14.01,2013-03-08 22:07:00,
2013-03-08 17:12:00,50.7,17.1,30.41,SSE,158,1.3,5.4,26,0.00,,CLR,0.00,VWS V14.01,2013-03-08 22:12:00,
2013-03-08 17:17:00,50.7,17.1,30.41,ENE,68,0.0,5.4,26,0.00,,CLR,0.00,VWS V14.01,2013-03-08 22:17:00,
2013-03-08 17:22:00,50.5,17.0,30.39,ENE,68,3.8,5.4,26,0.00,,CLR,0.00,VWS V14.01,2013-03-08 22:22:00,
2013-03-08 17:27:00,50.4,16.8,30.39,ENE,68,2.2,5.4,26,0.00,,CLR,0.00,VWS V14.01,2013-03-08 22:27:00,
2013-03-08 17:32:00,50.2,16.6,30.39,SSE,158,1.3,5.4,26,0.00,,CLR,0.00,VWS V14.01,2013-03-08 22:32:00,
2013-03-08 17:37:00,50.0,16.5,30.39,NNE,22,1.6,7.2,26,0.00,,CLR,0.00,VWS V14.01,2013-03-08 22:37:00,
2013-03-08 17:42:00,49.8,16.3,30.39,ENE,68,3.6,7.2,26,0.00,,CLR,0.00,VWS V14.01,2013-03-08 22:42:00,
2013-03-08 17:47:00,49.8,16.3,30.39,ESE,112,2.2,7.2,26,0.00,,CLR,0.00,VWS V14.01,2013-03-08 22:47:00,
2013-03-08 17:52:00,49.6,16.2,30.39,SE,135,4.3,7.2,26,0.00,,CLR,0.00,VWS V14.01,2013-03-08 22:52:00,
2013-03-08 17:57:00,49.5,16.0,30.39,ENE,68,2.5,4.3,26,0.00,,CLR,0.00,VWS V14.01,2013-03-08 22:57:00,
2013-03-08 18:02:00,49.5,16.0,30.39,SE,135,2.9,5.8,26,0.00,,CLR,0.00,VWS V14.01,2013-03-08 23:02:00,
2013-03-08 18:07:00,49.3,16.7,30.39,ESE,112,2.9,5.8,27,0.00,,CLR,0.00,VWS V14.01,2013-03-08 23:07:00,
2013-03-08 18:12:00,48.9,16.4,30.39,ESE,112,2.2,5.8,27,0.00,,CLR,0.00,VWS V14.01,2013-03-08 23:12:00,
2013-03-08 18:17:00,48.6,16.1,30.39,ESE,112,0.9,5.8,27,0.00,,CLR,0.00,VWS V14.01,2013-03-08 23:17:00,
2013-03-08 18:22:00,48.4,16.0,30.41,ENE,68,1.1,5.8,27,0.00,,CLR,0.00,VWS V14.01,2013-03-08 23:22:00,
2013-03-08 18:27:00,48.2,15.8,30.41,SW,225,0.0,5.8,27,0.00,,CLR,0.00,VWS V14.01,2013-03-08 23:27:00,
2013-03-08 18:32:00,47.8,16.3,30.41,East,90,1.1,5.8,28,0.00,,CLR,0.00,VWS V14.01,2013-03-08 23:32:00,
2013-03-08 18:37:00,47.8,16.3,30.39,SSE,158,0.9,5.8,28,0.00,,CLR,0.00,VWS V14.01,2013-03-08 23:37:00,
2013-03-08 18:42:00,47.7,16.2,30.39,ENE,68,1.1,5.8,28,0.00,,CLR,0.00,VWS V14.01,2013-03-08 23:42:00,
2013-03-08 18:47:00,47.5,16.0,30.39,ESE,112,0.0,5.8,28,0.00,,CLR,0.00,VWS V14.01,2013-03-08 23:47:00,
2013-03-08 18:52:00,47.1,15.7,30.41,ESE,112,1.3,5.8,28,0.00,,CLR,0.00,VWS V14.01,2013-03-08 23:52:00,
2013-03-08 18:57:00,46.8,16.2,30.41,NNE,22,0.0,2.0,29,0.00,,CLR,0.00,VWS V14.01,2013-03-08 23:57:00,
2013-03-08 19:02:00,46.8,16.2,30.41,NNE,22,0.0,2.0,29,0.00,,CLR,0.00,VWS V14.01,2013-03-09 00:02:00,
2013-03-08 19:07:00,46.4,15.9,30.41,SSE,158,0.0,2.0,29,0.00,,CLR,0.00,VWS V14.01,2013-03-09 00:07:00,
2013-03-08 19:12:00,46.0,16.4,30.41,East,90,0.9,2.7,30,0.00,,CLR,0.00,VWS V14.01,2013-03-09 00:12:00,
2013-03-08 19:17:00,45.9,16.2,30.41,ESE,112,0.0,2.7,30,0.00,,CLR,0.00,VWS V14.01,2013-03-09 00:17:00,
2013-03-08 19:22:00,45.5,15.9,30.41,ENE,68,1.3,2.7,30,0.00,,CLR,0.00,VWS V14.01,2013-03-09 00:22:00,
2013-03-08 19:27:00,45.7,16.8,30.41,ENE,68,3.1,3.1,31,0.00,,CLR,0.00,VWS V14.01,2013-03-09 00:27:00,
2013-03-08 19:32:00,45.9,17.0,30.41,ENE,68,2.5,3.4,31,0.00,,CLR,0.00,VWS V14.01,2013-03-09 00:32:00,
2013-03-08 19:37:00,45.9,17.7,30.41,ENE,68,0.0,3.4,32,0.00,,CLR,0.00,VWS V14.01,2013-03-09 00:37:00,
2013-03-08 19:42:00,45.5,17.4,30.41,ENE,68,0.0,3.4,32,0.00,,CLR,0.00,VWS V14.01,2013-03-09 00:42:00,
2013-03-08 19:47:00,45.1,17.1,30.41,ENE,68,0.0,3.4,32,0.00,,CLR,0.00,VWS V14.01,2013-03-09 00:47:00,
2013-03-08 19:52:00,44.8,17.5,30.39,ENE,68,1.1,3.4,33,0.00,,CLR,0.00,VWS V14.01,2013-03-09 00:52:00,
2013-03-08 19:57:00,45.0,17.6,30.39,ENE,68,1.3,2.9,33,0.00,,CLR,0.00,VWS V14.01,2013-03-09 00:57:00,
2013-03-08 20:02:00,45.1,18.5,30.39,ENE,68,2.2,3.8,34,0.00,,CLR,0.00,VWS V14.01,2013-03-09 01:02:00,
2013-03-08 20:07:00,45.1,19.1,30.39,ENE,68,2.2,3.8,35,0.00,,CLR,0.00,VWS V14.01,2013-03-09 01:07:00,
2013-03-08 20:12:00,45.1,19.1,30.39,ESE,112,1.3,3.8,35,0.00,,CLR,0.00,VWS V14.01,2013-03-09 01:12:00,
2013-03-08 20:17:00,45.1,19.1,30.39,ENE,68,0.0,3.8,35,0.00,,CLR,0.00,VWS V14.01,2013-03-09 01:17:00,
2013-03-08 20:22:00,45.1,19.1,30.39,ENE,68,1.1,3.8,35,0.00,,CLR,0.00,VWS V14.01,2013-03-09 01:22:00,
2013-03-08 20:27:00,45.0,19.0,30.39,ENE,68,0.0,3.8,35,0.00,,CLR,0.00,VWS V14.01,2013-03-09 01:27:00,
2013-03-08 20:32:00,45.0,19.0,30.39,ENE,68,0.0,3.8,35,0.00,,CLR,0.00,VWS V14.01,2013-03-09 01:32:00,
2013-03-08 20:37:00,45.0,19.0,30.41,ESE,112,0.0,3.8,35,0.00,,CLR,0.00,VWS V14.01,2013-03-09 01:37:00,
2013-03-08 20:42:00,45.0,19.0,30.41,SSE,158,0.0,4.0,35,0.00,,CLR,0.00,VWS V14.01,2013-03-09 01:42:00,
2013-03-08 20:47:00,44.6,18.7,30.41,ENE,68,1.1,4.0,35,0.00,,CLR,0.00,VWS V14.01,2013-03-09 01:47:00,
2013-03-08 20:52:00,44.4,19.1,30.41,ESE,112,0.0,4.0,36,0.00,,CLR,0.00,VWS V14.01,2013-03-09 01:52:00,
2013-03-08 20:57:00,44.2,19.0,30.41,ENE,68,0.9,0.9,36,0.00,,CLR,0.00,VWS V14.01,2013-03-09 01:57:00,
2013-03-08 21:02:00,44.1,18.8,30.41,ESE,112,0.0,2.2,36,0.00,,CLR,0.00,VWS V14.01,2013-03-09 02:02:00,
2013-03-08 21:07:00,44.1,18.8,30.41,East,90,0.0,2.7,36,0.00,,CLR,0.00,VWS V14.01,2013-03-09 02:07:00,
2013-03-08 21:12:00,43.9,19.3,30.41,NE,45,1.6,2.7,37,0.00,,CLR,0.00,VWS V14.01,2013-03-09 02:12:00,
2013-03-08 21:17:00,43.7,19.1,30.41,ENE,68,0.0,2.7,37,0.00,,CLR,0.00,VWS V14.01,2013-03-09 02:17:00,
2013-03-08 21:22:00,43.5,19.6,30.41,ENE,68,1.3,2.7,38,0.00,,CLR,0.00,VWS V14.01,2013-03-09 02:22:00,
2013-03-08 21:27:00,43.5,19.6,30.41,ENE,68,2.2,3.4,38,0.00,,CLR,0.00,VWS V14.01,2013-03-09 02:27:00,
2013-03-08 21:32:00,43.5,19.6,30.41,East,90,0.0,3.4,38,0.00,,CLR,0.00,VWS V14.01,2013-03-09 02:32:00,
2013-03-08 21:37:00,43.2,19.3,30.41,ESE,112,0.0,3.4,38,0.00,,CLR,0.00,VWS V14.01,2013-03-09 02:37:00,
2013-03-08 21:42:00,43.0,19.1,30.41,ENE,68,0.0,3.4,38,0.00,,CLR,0.00,VWS V14.01,2013-03-09 02:42:00,
2013-03-08 21:47:00,43.0,19.1,30.41,East,90,0.0,3.4,38,0.00,,CLR,0.00,VWS V14.01,2013-03-09 02:47:00,
2013-03-08 21:52:00,43.0,19.1,30.41,East,90,2.5,3.4,38,0.00,,CLR,0.00,VWS V14.01,2013-03-09 02:52:00,
2013-03-08 21:57:00,42.8,19.0,30.41,East,90,0.0,1.3,38,0.00,,CLR,0.00,VWS V14.01,2013-03-09 02:57:00,
2013-03-08 22:02:00,42.6,19.4,30.41,East,90,1.1,1.6,39,0.00,,CLR,0.00,VWS V14.01,2013-03-09 03:02:00,
2013-03-08 22:07:00,42.4,19.2,30.39,ENE,68,0.0,2.9,39,0.00,,CLR,0.00,VWS V14.01,2013-03-09 03:07:00,
2013-03-08 22:12:00,42.3,19.1,30.39,ENE,68,0.0,2.9,39,0.00,,CLR,0.00,VWS V14.01,2013-03-09 03:12:00,
2013-03-08 22:17:00,42.3,19.1,30.39,ENE,68,0.0,2.9,39,0.00,,CLR,0.00,VWS V14.01,2013-03-09 03:17:00,
2013-03-08 22:22:00,42.1,18.9,30.39,East,90,1.3,3.1,39,0.00,,CLR,0.00,VWS V14.01,2013-03-09 03:22:00,
2013-03-08 22:27:00,42.1,19.5,30.39,ENE,68,2.0,3.1,40,0.00,,CLR,0.00,VWS V14.01,2013-03-09 03:27:00,
2013-03-08 22:32:00,42.1,19.5,30.39,ENE,68,0.9,572.8,40,0.00,,CLR,0.00,VWS V14.01,2013-03-09 03:32:00,
2013-03-08 22:37:00,41.9,19.4,30.39,ENE,68,0.0,572.8,40,0.00,,CLR,0.00,VWS V14.01,2013-03-09 03:37:00,
2013-03-08 22:42:00,41.7,19.2,30.39,ESE,112,0.0,572.8,40,0.00,,CLR,0.00,VWS V14.01,2013-03-09 03:42:00,
2013-03-08 22:47:00,41.5,19.0,30.39,ENE,68,0.0,572.8,40,0.00,,CLR,0.00,VWS V14.01,2013-03-09 03:47:00,
2013-03-08 22:52:00,41.5,19.0,30.41,ENE,68,1.1,572.8,40,0.00,,CLR,0.00,VWS V14.01,2013-03-09 03:52:00,
2013-03-08 22:57:00,41.4,18.9,30.41,ESE,112,1.6,2.7,40,0.00,,CLR,0.00,VWS V14.01,2013-03-09 03:57:00,
2013-03-08 23:02:00,41.2,19.3,30.41,ENE,68,2.2,2.7,41,0.00,,CLR,0.00,VWS V14.01,2013-03-09 04:02:00,
2013-03-08 23:07:00,41.2,19.3,30.39,ENE,68,0.0,2.9,41,0.00,,CLR,0.00,VWS V14.01,2013-03-09 04:07:00,
2013-03-08 23:12:00,41.2,19.3,30.39,East,90,2.5,2.9,41,0.00,,CLR,0.00,VWS V14.01,2013-03-09 04:12:00,
2013-03-08 23:17:00,41.0,19.1,30.39,ENE,68,0.0,2.9,41,0.00,,CLR,0.00,VWS V14.01,2013-03-09 04:17:00,
2013-03-08 23:22:00,40.8,19.0,30.39,ESE,112,0.0,2.9,41,0.00,,CLR,0.00,VWS V14.01,2013-03-09 04:22:00,
2013-03-08 23:27:00,40.5,18.6,30.39,ESE,112,1.1,2.9,41,0.00,,CLR,0.00,VWS V14.01,2013-03-09 04:27:00,
2013-03-08 23:32:00,40.3,18.5,30.39,ESE,112,0.0,2.9,41,0.00,,CLR,0.00,VWS V14.01,2013-03-09 04:32:00,
2013-03-08 23:37:00,40.3,19.0,30.39,ESE,112,0.0,2.9,42,0.00,,CLR,0.00,VWS V14.01,2013-03-09 04:37:00,
2013-03-08 23:42:00,39.9,18.7,30.39,ESE,112,0.0,2.9,42,0.00,,CLR,0.00,VWS V14.01,2013-03-09 04:42:00,
2013-03-08 23:47:00,39.9,18.7,30.39,ESE,112,0.0,2.9,42,0.00,,CLR,0.00,VWS V14.01,2013-03-09 04:47:00,
2013-03-08 23:52:00,39.7,18.5,30.39,ENE,68,0.0,2.9,42,0.00,,CLR,0.00,VWS V14.01,2013-03-09 04:52:00,
2013-03-08 23:57:00,39.6,18.9,30.39,ESE,112,0.0,2.9,43,0.00,,CLR,0.00,VWS V14.01,2013-03-09 04:57:00,